Time;durP1;ratioP1;P1;durP2;ratioP2;P2;SDS_P1;SDS_P2;PMS_P1;PMS_P2;Temp;Humidity;BMP_temperature;BMP_pressure;BME280_temperature;BME280_humidity;BME280_pressure;Samples;Min_cycle;Max_cycle;Signal;HPM_P1;HPM_P2
2023/10/23 00:01:35;;;;;;;1.58;1.20;;;12.70;99.90;;;;;;4955329;28;20398;-17
2023/10/23 00:04:01;;;;;;;1.70;1.30;;;12.70;99.90;;;;;;4987404;28;20038;-17
2023/10/23 00:06:27;;;;;;;1.40;1.20;;;12.70;99.90;;;;;;4976612;28;20257;-17
2023/10/23 00:08:53;;;;;;;1.70;1.10;;;12.70;99.90;;;;;;4956871;28;20049;-17
2023/10/23 00:11:27;;;;;;;2.33;1.40;;;12.60;99.90;;;;;;4960576;28;20037;-18
2023/10/23 00:13:53;;;;;;;2.83;1.25;;;12.60;99.90;;;;;;4985442;28;20030;-17
2023/10/23 00:16:19;;;;;;;1.45;0.95;;;12.50;99.90;;;;;;4942307;28;20060;-18
2023/10/23 00:18:45;;;;;;;2.30;1.10;;;12.50;99.90;;;;;;4971924;28;20045;-17
2023/10/23 00:21:12;;;;;;;3.53;1.40;;;12.50;99.90;;;;;;4965828;28;20607;-18
2023/10/23 00:23:38;;;;;;;2.33;1.27;;;12.50;99.90;;;;;;4974859;28;20201;-17
2023/10/23 00:26:05;;;;;;;4.35;1.25;;;12.50;99.90;;;;;;4972782;28;20504;-18
2023/10/23 00:28:32;;;;;;;2.08;1.10;;;12.40;99.90;;;;;;4978312;28;20254;-17
2023/10/23 00:30:58;;;;;;;2.72;1.10;;;12.40;99.90;;;;;;4947028;28;20046;-17
2023/10/23 00:33:25;;;;;;;2.03;1.17;;;11.90;99.90;;;;;;4961652;28;20086;-17
2023/10/23 00:35:51;;;;;;;2.08;1.20;;;12.30;99.90;;;;;;4973290;28;20018;-17
2023/10/23 00:38:16;;;;;;;2.00;1.20;;;12.40;99.90;;;;;;4959931;28;20621;-18
2023/10/23 00:40:42;;;;;;;3.30;1.37;;;12.40;99.90;;;;;;4981629;28;21177;-18
2023/10/23 00:43:19;;;;;;;1.30;0.90;;;12.30;99.90;;;;;;4956552;28;20312;-18
2023/10/23 00:46:18;;;;;;;3.33;1.10;;;12.30;99.90;;;;;;4966172;28;20022;-19
2023/10/23 00:48:49;;;;;;;4.28;1.00;;;12.30;99.90;;;;;;4972615;28;20015;-20
2023/10/23 00:51:16;;;;;;;2.40;1.20;;;12.30;99.90;;;;;;4969812;28;20244;-19
2023/10/23 00:53:43;;;;;;;2.03;1.27;;;12.20;99.90;;;;;;4966752;28;20038;-20
2023/10/23 00:56:10;;;;;;;2.28;1.08;;;12.20;99.90;;;;;;4960791;28;20054;-19
2023/10/23 00:58:42;;;;;;;1.77;1.08;;;12.20;99.90;;;;;;4960073;28;20050;-20
2023/10/23 01:01:11;;;;;;;1.85;1.20;;;12.20;99.90;;;;;;4969909;28;20034;-19
2023/10/23 01:03:41;;;;;;;2.95;1.30;;;12.10;99.90;;;;;;4945716;28;20106;-19
2023/10/23 01:06:07;;;;;;;2.63;1.10;;;12.10;99.90;;;;;;4966112;28;20039;-19
2023/10/23 01:08:33;;;;;;;2.17;1.00;;;12.10;99.90;;;;;;4950013;28;20064;-20
2023/10/23 01:10:59;;;;;;;2.40;1.13;;;12.10;99.90;;;;;;4941712;28;20319;-20
2023/10/23 01:13:27;;;;;;;2.65;1.15;;;12.10;99.90;;;;;;4969143;28;20034;-20
2023/10/23 01:15:53;;;;;;;1.77;1.00;;;12.10;99.90;;;;;;4962630;28;20022;-19
2023/10/23 01:18:19;;;;;;;2.07;1.30;;;12.00;99.90;;;;;;4940629;28;20022;-20
2023/10/23 01:20:46;;;;;;;2.15;1.00;;;12.00;99.90;;;;;;4981508;28;20022;-20
2023/10/23 01:23:12;;;;;;;1.60;1.10;;;11.90;99.90;;;;;;4961993;28;20756;-20
2023/10/23 01:25:38;;;;;;;2.42;1.00;;;11.90;99.90;;;;;;4959346;28;20026;-19
2023/10/23 01:28:04;;;;;;;2.37;1.03;;;11.90;99.90;;;;;;4968306;28;20215;-20
2023/10/23 01:30:31;;;;;;;1.88;1.08;;;11.80;99.90;;;;;;4964006;28;20114;-19
2023/10/23 01:32:57;;;;;;;2.15;1.00;;;11.80;99.90;;;;;;4963596;28;20026;-19
2023/10/23 01:35:23;;;;;;;6.45;1.50;;;11.80;99.90;;;;;;4965127;28;20033;-20
2023/10/23 01:37:49;;;;;;;2.15;1.10;;;11.80;99.90;;;;;;4974547;28;20518;-19
2023/10/23 01:40:15;;;;;;;1.77;1.10;;;11.80;99.90;;;;;;4949299;28;20193;-19
2023/10/23 01:42:41;;;;;;;1.67;1.00;;;11.70;99.90;;;;;;4967980;28;20034;-19
2023/10/23 01:45:08;;;;;;;1.98;1.10;;;11.70;99.90;;;;;;4970572;28;20042;-18
2023/10/23 01:47:34;;;;;;;1.80;1.00;;;11.70;99.90;;;;;;4958144;28;20623;-18
2023/10/23 01:50:00;;;;;;;2.00;1.00;;;11.70;99.90;;;;;;4949465;28;20030;-18
2023/10/23 01:52:25;;;;;;;2.28;0.90;;;11.60;99.90;;;;;;4947898;28;20239;-18
2023/10/23 01:54:52;;;;;;;1.90;1.00;;;11.60;99.90;;;;;;4962028;28;20089;-17
2023/10/23 01:57:18;;;;;;;2.28;0.80;;;11.60;99.90;;;;;;4956788;28;20133;-18
2023/10/23 01:59:44;;;;;;;3.78;1.23;;;11.50;99.90;;;;;;4982543;28;20038;-18
2023/10/23 02:02:10;;;;;;;1.70;0.90;;;11.50;99.90;;;;;;4960015;28;20039;-18
2023/10/23 02:04:37;;;;;;;1.17;0.90;;;11.50;99.90;;;;;;4944585;28;20108;-18
2023/10/23 02:07:03;;;;;;;1.83;1.10;;;11.50;99.90;;;;;;4970772;28;20023;-18
2023/10/23 02:09:29;;;;;;;2.75;1.13;;;11.40;99.90;;;;;;4974920;28;20085;-18
2023/10/23 02:11:55;;;;;;;1.70;1.00;;;11.40;99.90;;;;;;4958990;28;20149;-17
2023/10/23 02:14:21;;;;;;;1.05;0.80;;;11.40;99.90;;;;;;4963678;28;20417;-18
2023/10/23 02:16:47;;;;;;;1.65;0.90;;;11.40;99.90;;;;;;4959089;28;20042;-18
2023/10/23 02:19:12;;;;;;;1.87;1.00;;;11.30;99.90;;;;;;4947128;28;20138;-18
2023/10/23 02:21:39;;;;;;;1.23;0.80;;;11.30;99.90;;;;;;4984976;28;20268;-18
2023/10/23 02:24:05;;;;;;;1.92;1.00;;;11.30;99.90;;;;;;4962028;28;20038;-18
2023/10/23 02:26:30;;;;;;;2.17;1.23;;;11.30;99.90;;;;;;4957639;28;20030;-18
2023/10/23 02:28:57;;;;;;;2.47;1.00;;;11.30;99.90;;;;;;4974646;28;20027;-18
2023/10/23 02:31:22;;;;;;;2.20;0.95;;;11.30;99.90;;;;;;4966653;28;20130;-18
2023/10/23 02:33:49;;;;;;;1.95;1.00;;;11.20;99.90;;;;;;4973250;28;20384;-18
2023/10/23 02:36:18;;;;;;;3.17;0.90;;;11.20;99.90;;;;;;4946980;28;20567;-18
2023/10/23 02:38:44;;;;;;;2.72;1.15;;;11.20;99.90;;;;;;4972657;28;20023;-18
2023/10/23 02:41:10;;;;;;;1.25;0.80;;;11.20;99.90;;;;;;4965742;28;20053;-18
2023/10/23 02:43:36;;;;;;;2.03;1.00;;;11.20;99.90;;;;;;4959120;28;20693;-18
2023/10/23 02:46:04;;;;;;;1.38;0.85;;;11.20;99.90;;;;;;4971990;28;20038;-18
2023/10/23 02:48:30;;;;;;;1.50;0.98;;;11.20;99.90;;;;;;4947075;28;20463;-18
2023/10/23 02:50:57;;;;;;;2.20;1.00;;;11.20;99.90;;;;;;4960275;28;20540;-18
2023/10/23 02:53:23;;;;;;;1.65;0.90;;;11.10;99.90;;;;;;4961178;28;20696;-18
2023/10/23 02:55:49;;;;;;;1.40;1.03;;;11.10;99.90;;;;;;4982338;28;20432;-18
2023/10/23 02:58:16;;;;;;;1.58;0.98;;;11.10;99.90;;;;;;4959990;28;20043;-18
2023/10/23 03:00:42;;;;;;;3.08;1.42;;;11.10;99.90;;;;;;4969427;28;20419;-18
2023/10/23 03:03:09;;;;;;;2.72;0.98;;;11.10;99.90;;;;;;4979737;28;20404;-18
2023/10/23 03:05:35;;;;;;;2.87;0.97;;;11.10;99.90;;;;;;4960825;28;20534;-19
2023/10/23 03:08:02;;;;;;;1.63;0.90;;;11.00;99.90;;;;;;4988797;28;20483;-20
2023/10/23 03:10:28;;;;;;;2.20;1.20;;;11.00;99.90;;;;;;4974476;28;20023;-20
2023/10/23 03:12:54;;;;;;;2.33;1.10;;;11.00;99.90;;;;;;4959335;28;20121;-20
2023/10/23 03:15:20;;;;;;;1.65;0.90;;;11.00;99.90;;;;;;4972540;28;20031;-20
2023/10/23 03:17:46;;;;;;;1.73;1.00;;;11.00;99.90;;;;;;4954064;28;20233;-20
2023/10/23 03:20:12;;;;;;;1.05;0.90;;;11.00;99.90;;;;;;4972469;28;20037;-20
2023/10/23 03:22:38;;;;;;;1.87;1.00;;;10.90;99.90;;;;;;4944049;28;20668;-20
2023/10/23 03:25:05;;;;;;;1.15;0.90;;;10.90;99.90;;;;;;4979726;28;20681;-20
2023/10/23 03:27:32;;;;;;;1.10;0.90;;;9.10;99.90;;;;;;4956823;28;20137;-20
2023/10/23 03:29:58;;;;;;;2.45;0.90;;;10.90;99.90;;;;;;4972299;28;20026;-20
2023/10/23 03:32:23;;;;;;;2.53;0.90;;;10.80;99.90;;;;;;4981201;28;20403;-20
2023/10/23 03:34:49;;;;;;;1.67;1.20;;;10.80;99.90;;;;;;4950960;28;20413;-20
2023/10/23 03:37:15;;;;;;;3.20;1.10;;;10.80;99.90;;;;;;4949266;28;20030;-20
2023/10/23 03:39:41;;;;;;;1.52;0.90;;;10.80;99.90;;;;;;4968174;28;20571;-20
2023/10/23 03:42:08;;;;;;;2.22;0.90;;;10.70;99.90;;;;;;4964846;28;20099;-20
2023/10/23 03:44:34;;;;;;;2.40;0.90;;;10.70;99.90;;;;;;4956994;28;20087;-20
2023/10/23 03:47:00;;;;;;;1.35;0.93;;;10.70;99.90;;;;;;4971395;28;20034;-20
2023/10/23 03:49:27;;;;;;;1.73;1.00;;;10.70;99.90;;;;;;4960274;28;20068;-20
2023/10/23 03:51:53;;;;;;;2.42;0.98;;;10.70;99.90;;;;;;4943229;28;21314;-20
2023/10/23 03:54:19;;;;;;;1.02;0.80;;;10.70;99.90;;;;;;4971829;28;20030;-20
2023/10/23 03:56:45;;;;;;;2.22;0.90;;;10.70;99.90;;;;;;4952250;28;20768;-20
2023/10/23 03:59:11;;;;;;;1.60;1.10;;;10.70;99.90;;;;;;4957132;28;20054;-20
2023/10/23 04:01:36;;;;;;;2.47;1.10;;;10.70;99.90;;;;;;4972588;28;20185;-20
2023/10/23 04:04:02;;;;;;;1.63;1.07;;;10.60;99.90;;;;;;4963608;28;20070;-20
2023/10/23 04:06:28;;;;;;;1.77;0.90;;;10.70;99.90;;;;;;4969724;28;20239;-18
2023/10/23 04:08:54;;;;;;;1.83;1.07;;;10.60;99.90;;;;;;4949069;28;20030;-18
2023/10/23 04:11:20;;;;;;;2.38;1.10;;;10.60;99.90;;;;;;4966360;28;20117;-18
2023/10/23 04:13:46;;;;;;;2.00;1.00;;;10.60;99.90;;;;;;4962212;28;20023;-18
2023/10/23 04:16:12;;;;;;;2.23;1.20;;;10.60;99.90;;;;;;4959859;28;21091;-20
2023/10/23 04:18:38;;;;;;;2.27;1.00;;;10.60;99.90;;;;;;4980487;28;20282;-20
2023/10/23 04:21:08;;;;;;;2.58;1.00;;;10.50;99.90;;;;;;4971132;28;20030;-20
2023/10/23 04:23:36;;;;;;;1.85;1.10;;;10.60;99.90;;;;;;4946823;28;20153;-20
2023/10/23 04:26:02;;;;;;;1.83;0.90;;;10.50;99.90;;;;;;4966963;28;20652;-20
2023/10/23 04:28:29;;;;;;;1.88;0.93;;;10.50;99.90;;;;;;4947401;28;20035;-20
2023/10/23 04:30:58;;;;;;;1.58;0.88;;;10.50;99.90;;;;;;4956853;28;20994;-20
2023/10/23 04:33:24;;;;;;;1.95;0.85;;;10.50;99.90;;;;;;4967992;28;20042;-20
2023/10/23 04:35:52;;;;;;;2.05;1.00;;;10.40;99.90;;;;;;4964213;28;20244;-20
2023/10/23 04:38:18;;;;;;;1.93;0.93;;;10.40;99.90;;;;;;4967963;28;20177;-20
2023/10/23 04:40:44;;;;;;;1.92;0.90;;;10.40;99.90;;;;;;4950196;28;20035;-20
2023/10/23 04:43:13;;;;;;;1.10;0.82;;;10.40;99.90;;;;;;4956195;28;20645;-20
2023/10/23 04:45:39;;;;;;;1.45;0.90;;;10.40;99.90;;;;;;4971017;28;20054;-20
2023/10/23 04:48:06;;;;;;;1.60;0.83;;;10.30;99.90;;;;;;4957519;28;20030;-20
2023/10/23 04:50:33;;;;;;;1.55;0.80;;;10.40;99.90;;;;;;4979454;28;20106;-20
2023/10/23 04:53:01;;;;;;;1.75;1.00;;;10.30;99.90;;;;;;4971016;28;20061;-20
2023/10/23 04:55:34;;;;;;;1.75;0.95;;;10.30;99.90;;;;;;4947178;28;20030;-20
2023/10/23 04:58:03;;;;;;;1.67;1.02;;;10.30;99.90;;;;;;4969050;28;20424;-20
2023/10/23 05:00:29;;;;;;;2.13;1.17;;;10.30;99.90;;;;;;4963728;28;20034;-20
2023/10/23 05:02:55;;;;;;;1.60;1.00;;;10.20;99.90;;;;;;4944392;28;20026;-20
2023/10/23 05:05:21;;;;;;;2.83;1.20;;;10.20;99.90;;;;;;4971768;28;20038;-20
2023/10/23 05:07:47;;;;;;;2.38;1.20;;;10.20;99.90;;;;;;4968803;28;20043;-20
2023/10/23 05:10:13;;;;;;;3.10;1.63;;;10.20;99.90;;;;;;4945989;28;20146;-20
2023/10/23 05:12:39;;;;;;;4.35;1.60;;;10.20;99.90;;;;;;4969836;28;20413;-20
2023/10/23 05:15:08;;;;;;;2.85;1.58;;;10.20;99.90;;;;;;4965707;28;20042;-20
2023/10/23 05:17:34;;;;;;;4.78;1.88;;;10.10;99.90;;;;;;4946608;28;20224;-20
2023/10/23 05:20:01;;;;;;;3.67;1.80;;;10.10;99.90;;;;;;4967678;28;20035;-20
2023/10/23 05:22:27;;;;;;;3.67;1.83;;;10.10;99.90;;;;;;4958154;28;20684;-20
2023/10/23 05:24:53;;;;;;;3.25;1.50;;;10.10;99.90;;;;;;4957551;28;20610;-20
2023/10/23 05:27:19;;;;;;;3.42;1.50;;;12.60;99.90;;;;;;4971340;28;20555;-17
2023/10/23 05:29:45;;;;;;;2.40;1.30;;;10.10;99.90;;;;;;4984619;28;20058;-18
2023/10/23 05:32:11;;;;;;;3.40;1.53;;;10.00;99.90;;;;;;4951258;28;20271;-17
2023/10/23 05:34:37;;;;;;;1.98;1.30;;;10.10;99.90;;;;;;4969551;28;20497;-18
2023/10/23 05:37:03;;;;;;;1.98;1.20;;;10.90;99.90;;;;;;4948700;28;20596;-18
2023/10/23 05:39:30;;;;;;;2.33;1.10;;;10.00;99.90;;;;;;4969221;28;20113;-18
2023/10/23 05:41:55;;;;;;;1.90;1.10;;;10.00;99.90;;;;;;4942911;28;20363;-18
2023/10/23 05:44:21;;;;;;;2.45;1.05;;;10.00;99.90;;;;;;4941792;28;20048;-18
2023/10/23 05:46:47;;;;;;;2.23;1.10;;;10.00;99.90;;;;;;4975072;28;20030;-18
2023/10/23 05:49:12;;;;;;;1.60;1.00;;;9.90;99.90;;;;;;4956391;28;20077;-18
2023/10/23 05:51:38;;;;;;;1.87;1.00;;;10.00;99.90;;;;;;4947380;28;20033;-18
2023/10/23 05:54:04;;;;;;;1.55;1.10;;;9.90;99.90;;;;;;4955256;28;20100;-18
2023/10/23 05:56:30;;;;;;;2.60;1.20;;;9.90;99.90;;;;;;4949590;28;22044;-17
2023/10/23 05:58:56;;;;;;;2.78;0.90;;;9.90;99.90;;;;;;4957305;28;20050;-18
2023/10/23 06:01:22;;;;;;;2.15;1.10;;;9.90;99.90;;;;;;4967075;28;20607;-18
2023/10/23 06:03:47;;;;;;;2.37;0.90;;;9.90;99.90;;;;;;4967258;28;20046;-18
2023/10/23 06:06:13;;;;;;;1.98;1.30;;;9.90;99.90;;;;;;4967221;28;20677;-18
2023/10/23 06:08:39;;;;;;;2.15;1.10;;;9.90;99.90;;;;;;4977423;28;20026;-18
2023/10/23 06:11:10;;;;;;;2.87;0.90;;;9.90;99.90;;;;;;4974164;28;20026;-18
2023/10/23 06:13:36;;;;;;;2.15;1.10;;;9.90;99.90;;;;;;4959015;28;20025;-18
2023/10/23 06:16:04;;;;;;;1.42;1.10;;;9.90;99.90;;;;;;4968025;28;20030;-18
2023/10/23 06:18:38;;;;;;;3.28;1.35;;;9.90;99.90;;;;;;4985967;28;20027;-18
2023/10/23 06:21:05;;;;;;;2.10;0.90;;;9.80;99.90;;;;;;4951630;28;20050;-18
2023/10/23 06:23:39;;;;;;;2.00;0.80;;;9.90;99.90;;;;;;4962265;28;20061;-18
2023/10/23 06:26:08;;;;;;;1.73;1.00;;;9.80;99.90;;;;;;4979794;28;20026;-18
2023/10/23 06:28:35;;;;;;;1.75;1.10;;;9.80;99.90;;;;;;4959368;28;20081;-18
2023/10/23 06:31:08;;;;;;;1.90;0.98;;;9.80;99.90;;;;;;4991691;28;20480;-18
2023/10/23 06:33:35;;;;;;;2.10;1.10;;;9.80;99.90;;;;;;4971904;28;20031;-17
2023/10/23 06:36:01;;;;;;;1.73;0.98;;;9.90;99.90;;;;;;4964526;28;20035;-18
2023/10/23 06:38:27;;;;;;;1.33;1.00;;;9.80;99.90;;;;;;4961612;28;20778;-18
2023/10/23 06:40:52;;;;;;;2.38;1.10;;;9.80;99.90;;;;;;4981369;28;20109;-18
2023/10/23 06:43:18;;;;;;;3.10;1.10;;;9.80;99.90;;;;;;4953842;28;22553;-18
2023/10/23 06:45:44;;;;;;;2.17;1.10;;;9.80;99.90;;;;;;4978434;28;20034;-18
2023/10/23 06:48:10;;;;;;;2.47;1.17;;;9.90;99.90;;;;;;4947698;28;20053;-18
2023/10/23 06:50:36;;;;;;;2.80;1.20;;;9.80;99.90;;;;;;4966929;28;20745;-18
2023/10/23 06:53:02;;;;;;;3.63;1.10;;;9.90;99.90;;;;;;4958388;28;20030;-18
2023/10/23 06:55:28;;;;;;;1.90;1.20;;;9.90;99.90;;;;;;4942103;28;20061;-18
2023/10/23 06:57:54;;;;;;;2.13;1.20;;;9.90;99.90;;;;;;4965821;28;20063;-20
2023/10/23 07:00:21;;;;;;;2.80;1.10;;;9.90;99.90;;;;;;4957771;28;20034;-20
2023/10/23 07:02:50;;;;;;;2.78;1.02;;;10.00;99.90;;;;;;4958238;28;20050;-20
2023/10/23 07:05:16;;;;;;;2.30;1.23;;;10.00;99.90;;;;;;4976660;28;20043;-20
2023/10/23 07:07:43;;;;;;;2.37;1.13;;;10.00;99.90;;;;;;4951882;28;20050;-18
2023/10/23 07:10:09;;;;;;;3.13;1.10;;;10.10;99.90;;;;;;4987833;28;20066;-18
2023/10/23 07:12:35;;;;;;;1.30;1.02;;;10.10;99.90;;;;;;4973043;28;20476;-18
2023/10/23 07:15:02;;;;;;;2.40;1.25;;;10.20;99.90;;;;;;4945673;28;20200;-18
2023/10/23 07:17:29;;;;;;;4.23;1.20;;;10.20;99.90;;;;;;4964907;28;20201;-18
2023/10/23 07:19:54;;;;;;;1.55;1.15;;;10.30;99.90;;;;;;4962373;28;20256;-18
2023/10/23 07:22:20;;;;;;;3.03;1.20;;;10.40;99.90;;;;;;4964273;28;20061;-18
2023/10/23 07:24:46;;;;;;;2.50;1.20;;;10.40;99.90;;;;;;4957169;28;20034;-18
2023/10/23 07:27:15;;;;;;;2.88;1.40;;;10.50;99.90;;;;;;4983609;28;20043;-18
2023/10/23 07:29:42;;;;;;;3.88;1.48;;;10.50;99.90;;;;;;4974186;28;20088;-18
2023/10/23 07:32:08;;;;;;;2.72;1.23;;;10.50;99.90;;;;;;4950509;28;20046;-18
2023/10/23 07:34:33;;;;;;;1.90;1.30;;;10.60;99.90;;;;;;4973118;28;20113;-18
2023/10/23 07:36:59;;;;;;;1.67;1.17;;;10.80;99.90;;;;;;4964742;28;20380;-18
2023/10/23 07:39:25;;;;;;;3.27;1.20;;;10.90;99.90;;;;;;4956371;28;20301;-18
2023/10/23 07:41:51;;;;;;;3.85;1.52;;;10.90;99.90;;;;;;4971831;28;20775;-18
2023/10/23 07:44:17;;;;;;;3.47;1.73;;;11.10;99.90;;;;;;4971584;28;20023;-18
2023/10/23 07:46:43;;;;;;;3.35;1.70;;;11.20;99.90;;;;;;4954067;28;20038;-20
2023/10/23 07:49:09;;;;;;;2.70;1.50;;;11.30;99.90;;;;;;4963650;28;20121;-20
2023/10/23 07:51:35;;;;;;;3.10;1.53;;;11.40;99.90;;;;;;4960057;28;20112;-20
2023/10/23 07:54:01;;;;;;;3.43;1.23;;;11.50;99.90;;;;;;4945787;28;20274;-20
2023/10/23 07:56:26;;;;;;;2.65;1.40;;;11.50;99.90;;;;;;4956606;28;20112;-20
2023/10/23 07:58:55;;;;;;;2.47;1.37;;;11.60;99.90;;;;;;4974039;28;20150;-20
2023/10/23 08:01:22;;;;;;;2.53;1.50;;;11.70;99.90;;;;;;4924249;28;20050;-20
2023/10/23 08:03:48;;;;;;;2.67;1.35;;;11.80;99.90;;;;;;4964151;28;20026;-20
2023/10/23 08:06:14;;;;;;;2.73;1.30;;;11.80;99.90;;;;;;4974835;28;20043;-20
2023/10/23 08:08:43;;;;;;;3.95;1.95;;;11.90;99.90;;;;;;4964105;28;20023;-20
2023/10/23 08:11:10;;;;;;;2.60;1.30;;;12.00;99.90;;;;;;4971988;28;20522;-20
2023/10/23 08:13:36;;;;;;;3.92;1.40;;;12.00;99.90;;;;;;4970954;28;20699;-20
2023/10/23 08:16:03;;;;;;;2.60;1.38;;;13.90;99.90;;;;;;4961822;28;20599;-19
2023/10/23 08:18:29;;;;;;;2.40;1.47;;;12.20;99.90;;;;;;4948277;28;20745;-18
2023/10/23 08:20:55;;;;;;;3.20;1.40;;;12.30;99.90;;;;;;4975441;28;20030;-19
2023/10/23 08:23:21;;;;;;;3.30;1.50;;;12.80;99.90;;;;;;4948652;28;20355;-19
2023/10/23 08:25:46;;;;;;;2.77;1.40;;;12.40;99.90;;;;;;4987735;28;20043;-18
2023/10/23 08:28:12;;;;;;;2.15;1.20;;;12.40;99.90;;;;;;4973168;28;20368;-19
2023/10/23 08:30:38;;;;;;;2.77;1.20;;;12.60;99.90;;;;;;4971036;28;20420;-19
2023/10/23 08:33:05;;;;;;;1.92;1.20;;;12.60;99.90;;;;;;4947629;28;20065;-19
2023/10/23 08:35:32;;;;;;;2.92;1.58;;;12.70;99.90;;;;;;4976613;28;20789;-19
2023/10/23 08:37:58;;;;;;;2.15;1.23;;;12.80;99.90;;;;;;4967088;28;20029;-18
2023/10/23 08:40:23;;;;;;;4.77;1.40;;;12.80;99.90;;;;;;4963011;28;20022;-19
2023/10/23 08:42:49;;;;;;;2.75;1.27;;;12.90;99.90;;;;;;4971489;28;20488;-19
2023/10/23 08:45:16;;;;;;;3.50;1.40;;;13.00;99.90;;;;;;4969825;28;20053;-19
2023/10/23 08:47:43;;;;;;;2.33;1.20;;;13.10;99.90;;;;;;4973433;28;20303;-19
2023/10/23 08:50:09;;;;;;;2.88;1.30;;;13.20;99.90;;;;;;4950011;28;20098;-19
2023/10/23 08:52:45;;;;;;;4.53;1.60;;;13.20;99.90;;;;;;4971132;28;20026;-19
2023/10/23 08:55:15;;;;;;;2.53;1.30;;;13.40;99.90;;;;;;4951209;28;20432;-19
2023/10/23 08:57:50;;;;;;;2.55;1.50;;;13.60;99.90;;;;;;4971149;28;20047;-20
2023/10/23 09:00:16;;;;;;;3.90;1.33;;;13.70;99.90;;;;;;4981948;28;20038;-21
2023/10/23 09:02:42;;;;;;;2.40;1.33;;;13.90;99.90;;;;;;4975565;28;20040;-21
2023/10/23 09:05:08;;;;;;;3.85;1.65;;;14.00;99.90;;;;;;4926226;28;20506;-21
2023/10/23 09:07:38;;;;;;;3.07;1.70;;;14.20;99.90;;;;;;4969609;28;20245;-21
2023/10/23 09:10:05;;;;;;;2.33;1.40;;;14.50;99.90;;;;;;4959432;28;20104;-21
2023/10/23 09:12:33;;;;;;;3.65;1.50;;;14.40;99.90;;;;;;4966639;28;20397;-21
2023/10/23 09:15:15;;;;;;;2.13;1.20;;;14.60;99.90;;;;;;4974535;28;20022;-21
2023/10/23 09:17:42;;;;;;;1.93;1.30;;;14.70;99.90;;;;;;4974349;28;20026;-21
2023/10/23 09:20:24;;;;;;;2.60;1.38;;;15.00;99.90;;;;;;4962124;28;20052;-21
2023/10/23 09:22:53;;;;;;;2.80;1.45;;;15.00;99.90;;;;;;4971415;28;20568;-21
2023/10/23 09:25:23;;;;;;;2.72;1.30;;;15.10;99.90;;;;;;4948100;28;20132;-21
2023/10/23 09:27:50;;;;;;;1.88;1.20;;;15.20;99.90;;;;;;4971764;28;20563;-21
2023/10/23 09:30:26;;;;;;;2.07;1.33;;;15.30;99.90;;;;;;4967289;28;20072;-21
2023/10/23 09:32:53;;;;;;;3.47;1.50;;;15.40;99.90;;;;;;4953837;28;20050;-21
2023/10/23 09:35:20;;;;;;;3.30;1.60;;;15.50;99.90;;;;;;4984499;28;20035;-21
2023/10/23 09:37:46;;;;;;;4.15;1.58;;;15.60;99.90;;;;;;4966466;28;20030;-21
2023/10/23 09:40:12;;;;;;;2.28;1.70;;;15.70;99.90;;;;;;4957062;28;20035;-21
2023/10/23 09:42:40;;;;;;;3.57;1.80;;;15.80;99.90;;;;;;4962106;28;20030;-21
2023/10/23 09:45:06;;;;;;;2.65;1.52;;;15.90;99.90;;;;;;4967744;28;20033;-21
2023/10/23 09:47:32;;;;;;;3.33;1.45;;;15.90;99.90;;;;;;4963789;28;20050;-21
2023/10/23 09:49:59;;;;;;;3.03;1.30;;;16.00;99.90;;;;;;4973163;28;20030;-21
2023/10/23 09:52:26;;;;;;;2.35;1.30;;;16.00;99.90;;;;;;4947818;28;23095;-21
2023/10/23 09:55:09;;;;;;;1.67;1.17;;;16.00;99.90;;;;;;4970910;28;20038;-21
2023/10/23 09:57:45;;;;;;;2.85;1.23;;;16.10;99.90;;;;;;4961406;28;20035;-20
2023/10/23 10:00:15;;;;;;;4.13;1.40;;;16.10;99.90;;;;;;4966794;28;20122;-20
2023/10/23 10:02:55;;;;;;;2.53;1.23;;;16.10;99.90;;;;;;4971180;28;20071;-20
2023/10/23 10:05:50;;;;;;;3.35;1.40;;;16.10;99.90;;;;;;4973712;28;20037;-20
2023/10/23 10:08:18;;;;;;;3.87;1.53;;;16.20;99.90;;;;;;4959429;28;21493;-20
2023/10/23 10:10:44;;;;;;;2.45;1.40;;;16.20;99.90;;;;;;4948952;28;20069;-20
2023/10/23 10:13:13;;;;;;;3.90;1.50;;;16.30;99.90;;;;;;4960178;28;20046;-20
2023/10/23 10:15:39;;;;;;;2.80;1.40;;;16.10;99.90;;;;;;4973909;28;20038;-20
2023/10/23 10:18:07;;;;;;;3.45;1.70;;;16.30;99.90;;;;;;4968908;28;20040;-20
2023/10/23 10:20:34;;;;;;;3.90;2.20;;;16.30;99.90;;;;;;4972115;28;20112;-20
2023/10/23 10:23:10;;;;;;;4.13;2.33;;;16.40;99.90;;;;;;4967904;28;20034;-20
2023/10/23 10:25:37;;;;;;;3.78;2.45;;;16.40;99.90;;;;;;4971727;28;20046;-20
2023/10/23 10:28:05;;;;;;;5.88;2.35;;;16.40;99.90;;;;;;4947411;28;20436;-20
2023/10/23 10:30:45;;;;;;;3.00;2.00;;;16.40;99.90;;;;;;4957814;28;20062;-20
2023/10/23 10:33:31;;;;;;;3.40;1.50;;;16.40;99.90;;;;;;4971294;28;20528;-20
2023/10/23 10:36:05;;;;;;;3.88;1.58;;;16.40;99.90;;;;;;4960788;28;20027;-20
2023/10/23 10:38:33;;;;;;;1.77;1.10;;;16.40;99.90;;;;;;4973557;28;20034;-20
2023/10/23 10:41:04;;;;;;;3.85;1.20;;;16.10;99.90;;;;;;4960144;28;20042;-20
2023/10/23 10:43:37;;;;;;;2.60;1.30;;;16.50;99.90;;;;;;4959622;28;20031;-20
2023/10/23 10:46:28;;;;;;;2.80;1.20;;;16.50;99.90;;;;;;4986950;28;20050;-20
2023/10/23 10:48:55;;;;;;;3.95;1.27;;;16.50;99.90;;;;;;4973000;28;20035;-20
2023/10/23 10:51:26;;;;;;;2.65;1.10;;;16.50;99.90;;;;;;4973959;28;20122;-20
2023/10/23 10:54:00;;;;;;;1.90;1.23;;;16.50;99.90;;;;;;4984556;28;20041;-20
2023/10/23 10:56:26;;;;;;;3.17;1.30;;;16.50;99.90;;;;;;4963137;28;20023;-22
2023/10/23 10:58:52;;;;;;;2.83;1.20;;;16.60;99.90;;;;;;4960050;28;20549;-22
2023/10/23 11:01:22;;;;;;;2.30;1.30;;;16.60;99.90;;;;;;4959076;28;20568;-21
2023/10/23 11:03:50;;;;;;;3.15;1.00;;;16.60;99.90;;;;;;4991068;28;20022;-21
2023/10/23 11:06:16;;;;;;;2.00;1.20;;;16.60;99.90;;;;;;4946319;28;20113;-22
2023/10/23 11:08:42;;;;;;;3.23;1.30;;;16.60;99.90;;;;;;4976998;28;20026;-22
2023/10/23 11:11:08;;;;;;;2.65;1.27;;;16.60;99.90;;;;;;4948068;28;20544;-22
2023/10/23 11:13:34;;;;;;;2.58;1.20;;;16.60;99.90;;;;;;4978373;28;20038;-21
2023/10/23 11:16:00;;;;;;;2.53;1.20;;;16.70;99.90;;;;;;4961754;28;20034;-22
2023/10/23 11:18:30;;;;;;;3.10;1.35;;;16.70;99.90;;;;;;4973643;28;20395;-20
2023/10/23 11:20:57;;;;;;;2.33;1.40;;;16.70;99.90;;;;;;4975804;28;20374;-21
2023/10/23 11:23:23;;;;;;;3.13;1.25;;;16.80;99.90;;;;;;4960870;28;20420;-20
2023/10/23 11:25:50;;;;;;;2.57;1.57;;;16.80;99.90;;;;;;4950501;28;20037;-20
2023/10/23 11:28:19;;;;;;;2.92;1.23;;;16.80;99.90;;;;;;4964571;28;20027;-20
2023/10/23 11:30:53;;;;;;;3.83;1.10;;;16.90;99.90;;;;;;4977874;28;20057;-20
2023/10/23 11:33:19;;;;;;;2.30;1.30;;;16.90;99.90;;;;;;4973230;28;20721;-20
2023/10/23 11:35:45;;;;;;;2.35;1.17;;;15.40;99.90;;;;;;4975114;28;20029;-20
2023/10/23 11:38:19;;;;;;;3.47;1.40;;;17.00;99.90;;;;;;4967634;28;20267;-20
2023/10/23 11:40:45;;;;;;;1.98;1.10;;;17.00;99.90;;;;;;4945991;28;20030;-20
2023/10/23 11:43:13;;;;;;;2.05;1.00;;;17.00;99.90;;;;;;4969266;28;20026;-21
2023/10/23 11:45:41;;;;;;;3.15;1.23;;;17.10;99.90;;;;;;4972874;28;20037;-20
2023/10/23 11:48:07;;;;;;;2.03;1.10;;;17.10;99.90;;;;;;4988324;28;20370;-21
2023/10/23 11:50:37;;;;;;;2.30;1.10;;;17.10;99.90;;;;;;4974987;28;20077;-20
2023/10/23 11:53:06;;;;;;;2.42;1.10;;;17.10;99.90;;;;;;4960774;28;20471;-21
2023/10/23 11:55:33;;;;;;;2.08;1.10;;;17.10;99.90;;;;;;4949691;28;20447;-20
2023/10/23 11:57:59;;;;;;;4.13;1.20;;;17.10;99.90;;;;;;4971749;28;20050;-20
2023/10/23 12:00:25;;;;;;;2.93;1.30;;;17.10;99.90;;;;;;4970374;28;20569;-20
2023/10/23 12:02:51;;;;;;;2.78;1.25;;;17.10;99.90;;;;;;4972695;28;20407;-20
2023/10/23 12:05:20;;;;;;;3.38;1.30;;;17.10;99.90;;;;;;4968846;28;20616;-20
2023/10/23 12:07:52;;;;;;;2.53;1.10;;;18.00;99.90;;;;;;4973037;28;20041;-22
2023/10/23 12:10:18;;;;;;;2.57;1.03;;;17.30;99.90;;;;;;4947289;28;20053;-22
2023/10/23 12:12:45;;;;;;;3.50;1.40;;;17.20;99.90;;;;;;4960961;28;20022;-21
2023/10/23 12:15:13;;;;;;;3.00;1.42;;;17.20;99.90;;;;;;4967519;28;20061;-21
2023/10/23 12:17:39;;;;;;;5.03;1.70;;;17.30;99.90;;;;;;4960981;28;20063;-22
2023/10/23 12:20:09;;;;;;;3.45;1.67;;;17.20;99.90;;;;;;4971245;28;20433;-22
2023/10/23 12:22:45;;;;;;;5.87;2.30;;;17.30;99.90;;;;;;4954048;28;20046;-21
2023/10/23 12:25:11;;;;;;;4.65;2.30;;;17.30;99.90;;;;;;4969523;28;20280;-22
2023/10/23 12:27:39;;;;;;;5.70;2.78;;;17.30;99.90;;;;;;4949736;28;20125;-20
2023/10/23 12:30:06;;;;;;;4.55;2.72;;;17.30;99.90;;;;;;4970598;28;20058;-21
2023/10/23 12:32:32;;;;;;;4.70;2.63;;;17.30;99.90;;;;;;4959898;28;20406;-21
2023/10/23 12:34:59;;;;;;;6.60;3.17;;;17.30;99.90;;;;;;4960005;28;20030;-20
2023/10/23 12:37:28;;;;;;;5.50;3.00;;;17.40;99.90;;;;;;4986875;28;20023;-21
2023/10/23 12:39:54;;;;;;;7.95;3.55;;;17.40;99.90;;;;;;4971219;28;20263;-21
2023/10/23 12:42:21;;;;;;;5.82;2.67;;;17.40;99.90;;;;;;4948545;28;20500;-21
2023/10/23 12:44:50;;;;;;;6.88;2.78;;;17.40;99.90;;;;;;4970918;28;20026;-21
2023/10/23 12:47:17;;;;;;;5.50;2.67;;;17.40;99.90;;;;;;4951116;28;20439;-21
2023/10/23 12:49:43;;;;;;;6.43;2.80;;;17.40;99.90;;;;;;4975067;28;20555;-21